Time;durP1;ratioP1;P1;durP2;ratioP2;P2;SDS_P1;SDS_P2;PMS_P1;PMS_P2;Temp;Humidity;BMP_temperature;BMP_pressure;BME280_temperature;BME280_humidity;BME280_pressure;Samples;Min_cycle;Max_cycle;Signal;HPM_P1;HPM_P2
2023/05/18 00:01:09;;;;;;;5.47;5.07;;;;;;;;;;5034770;28;21118;-58
2023/05/18 00:03:36;;;;;;;4.60;4.30;;;;;;;;;;5034774;28;20551;-58
2023/05/18 00:06:03;;;;;;;5.87;5.20;;;;;;;;;;5034782;28;20446;-58
2023/05/18 00:08:29;;;;;;;5.43;4.97;;;;;;;;;;5034939;28;20388;-59
2023/05/18 00:10:55;;;;;;;7.90;5.10;;;;;;;;;;5034737;28;20789;-58
2023/05/18 00:13:21;;;;;;;5.10;4.63;;;;;;;;;;5034552;28;20427;-58
2023/05/18 00:15:47;;;;;;;5.23;4.93;;;;;;;;;;5033306;28;20498;-58
2023/05/18 00:18:13;;;;;;;5.57;5.07;;;;;;;;;;5034573;28;20451;-58
2023/05/18 00:20:40;;;;;;;5.00;4.70;;;;;;;;;;5033868;28;20447;-57
2023/05/18 00:23:09;;;;;;;5.17;4.77;;;;;;;;;;5034584;28;20599;-58
2023/05/18 00:25:35;;;;;;;4.63;4.33;;;;;;;;;;5034483;28;20408;-58
2023/05/18 00:28:01;;;;;;;4.20;3.90;;;;;;;;;;5034516;28;20458;-58
2023/05/18 00:30:29;;;;;;;4.80;4.40;;;;;;;;;;5034534;28;20400;-58
2023/05/18 00:32:58;;;;;;;7.63;4.07;;;;;;;;;;5034430;28;20919;-58
2023/05/18 00:35:24;;;;;;;10.03;4.60;;;;;;;;;;5033078;28;20981;-58
2023/05/18 00:37:52;;;;;;;4.80;4.40;;;;;;;;;;5034329;28;20482;-58
2023/05/18 00:40:18;;;;;;;4.30;3.90;;;;;;;;;;5033782;28;20435;-58
2023/05/18 00:42:44;;;;;;;6.87;4.73;;;;;;;;;;5034144;28;20456;-58
2023/05/18 00:45:11;;;;;;;4.73;4.10;;;;;;;;;;5034109;28;20428;-58
2023/05/18 00:47:37;;;;;;;5.50;4.57;;;;;;;;;;5034141;28;20466;-58
2023/05/18 00:50:03;;;;;;;4.70;4.33;;;;;;;;;;5034095;28;20416;-58
2023/05/18 00:52:31;;;;;;;4.10;3.90;;;;;;;;;;5034007;28;20412;-58
2023/05/18 00:54:58;;;;;;;4.97;4.57;;;;;;;;;;5033925;28;20416;-58
2023/05/18 00:57:24;;;;;;;9.67;5.33;;;;;;;;;;5033887;28;20915;-58
2023/05/18 00:59:51;;;;;;;4.97;4.57;;;;;;;;;;5033772;28;20495;-58
2023/05/18 01:02:17;;;;;;;5.00;4.53;;;;;;;;;;5033673;28;20443;-58
2023/05/18 01:04:43;;;;;;;4.87;4.50;;;;;;;;;;5033758;28;20427;-58
2023/05/18 01:07:09;;;;;;;6.73;4.40;;;;;;;;;;5033691;28;20403;-58
2023/05/18 01:09:36;;;;;;;6.50;3.93;;;;;;;;;;5033701;28;20410;-58
2023/05/18 01:12:23;;;;;;;4.73;4.20;;;;;;;;;;5033553;28;20462;-58
2023/05/18 01:14:53;;;;;;;4.70;4.40;;;;;;;;;;5033537;28;20950;-58
2023/05/18 01:17:34;;;;;;;4.70;4.27;;;;;;;;;;5032316;28;20426;-58
2023/05/18 01:20:23;;;;;;;7.20;4.90;;;;;;;;;;5033615;28;20408;-58
2023/05/18 01:22:55;;;;;;;4.97;4.60;;;;;;;;;;5027950;28;20529;-58
2023/05/18 01:25:30;;;;;;;4.83;4.43;;;;;;;;;;5033287;28;20439;-58
2023/05/18 01:27:58;;;;;;;7.77;4.57;;;;;;;;;;5033220;28;20418;-58
2023/05/18 01:30:25;;;;;;;8.23;4.90;;;;;;;;;;5031662;28;20449;-58
2023/05/18 01:32:53;;;;;;;4.47;4.17;;;;;;;;;;5031843;28;20826;-58
2023/05/18 01:35:19;;;;;;;5.27;4.87;;;;;;;;;;5033010;28;20501;-58
2023/05/18 01:37:47;;;;;;;5.40;5.10;;;;;;;;;;5033192;28;20420;-58
2023/05/18 01:40:13;;;;;;;6.13;5.63;;;;;;;;;;5033134;28;20845;-58
2023/05/18 01:42:46;;;;;;;6.67;5.13;;;;;;;;;;5032988;28;20459;-58
2023/05/18 01:45:17;;;;;;;5.60;4.60;;;;;;;;;;5032821;28;20968;-58
2023/05/18 01:47:46;;;;;;;4.00;3.80;;;;;;;;;;5032856;28;20427;-58
2023/05/18 01:50:21;;;;;;;6.00;4.87;;;;;;;;;;5031558;28;20628;-58
2023/05/18 01:52:57;;;;;;;5.87;5.37;;;;;;;;;;5032737;28;20447;-58
2023/05/18 01:55:27;;;;;;;5.93;4.90;;;;;;;;;;5032831;28;20446;-58
2023/05/18 01:57:55;;;;;;;4.87;4.47;;;;;;;;;;5032670;28;20544;-58
2023/05/18 02:00:23;;;;;;;6.50;5.00;;;;;;;;;;5032748;28;20473;-58
2023/05/18 02:02:51;;;;;;;4.53;4.33;;;;;;;;;;5031286;28;20787;-58
2023/05/18 02:05:17;;;;;;;5.43;4.20;;;;;;;;;;5032659;28;20451;-58
2023/05/18 02:07:46;;;;;;;6.27;4.40;;;;;;;;;;5032662;28;20439;-58
2023/05/18 02:10:14;;;;;;;4.60;4.20;;;;;;;;;;5032562;28;20775;-58
2023/05/18 02:12:43;;;;;;;4.93;4.47;;;;;;;;;;5032506;28;20420;-58
2023/05/18 02:15:09;;;;;;;5.03;4.73;;;;;;;;;;5032364;28;20427;-58
2023/05/18 02:17:38;;;;;;;4.57;4.17;;;;;;;;;;5032469;28;20418;-58
2023/05/18 02:20:06;;;;;;;4.60;4.33;;;;;;;;;;5032422;28;20522;-58
2023/05/18 02:22:34;;;;;;;5.63;5.10;;;;;;;;;;5032307;28;20920;-58
2023/05/18 02:25:00;;;;;;;4.70;4.30;;;;;;;;;;5032363;28;20419;-58
2023/05/18 02:27:27;;;;;;;6.87;5.03;;;;;;;;;;5032474;28;20411;-58
2023/05/18 02:29:53;;;;;;;6.87;4.57;;;;;;;;;;5031253;28;20448;-58
2023/05/18 02:32:22;;;;;;;5.70;4.23;;;;;;;;;;5032274;28;20489;-58
2023/05/18 02:34:51;;;;;;;5.03;4.60;;;;;;;;;;5032233;28;20454;-58
2023/05/18 02:37:17;;;;;;;6.57;4.50;;;;;;;;;;5032261;28;20439;-58
2023/05/18 02:39:45;;;;;;;6.20;4.60;;;;;;;;;;5032089;28;20427;-58
2023/05/18 02:42:12;;;;;;;6.83;5.10;;;;;;;;;;5032519;28;20484;-58
2023/05/18 02:44:41;;;;;;;6.53;5.20;;;;;;;;;;5036244;28;20529;-58
2023/05/18 02:47:06;;;;;;;6.50;5.20;;;;;;;;;;5036422;28;20838;-58
2023/05/18 02:49:32;;;;;;;5.30;4.90;;;;;;;;;;5035077;28;20443;-58
2023/05/18 02:51:58;;;;;;;10.40;5.33;;;;;;;;;;5036464;28;20408;-58
2023/05/18 02:54:24;;;;;;;5.80;5.03;;;;;;;;;;5036333;28;20443;-58
2023/05/18 02:56:50;;;;;;;5.57;5.10;;;;;;;;;;5036377;28;20419;-58
2023/05/18 02:59:16;;;;;;;6.87;4.83;;;;;;;;;;5036111;28;20435;-57
2023/05/18 03:01:42;;;;;;;5.30;4.90;;;;;;;;;;5035944;28;20549;-58
2023/05/18 03:04:08;;;;;;;5.47;4.97;;;;;;;;;;5035774;28;20558;-58
2023/05/18 03:06:34;;;;;;;8.50;5.83;;;;;;;;;;5036045;28;20411;-58
2023/05/18 03:09:03;;;;;;;12.03;5.57;;;;;;;;;;5035842;28;20411;-58
2023/05/18 03:11:29;;;;;;;5.70;5.40;;;;;;;;;;5036128;28;20418;-58
2023/05/18 03:13:55;;;;;;;7.00;4.97;;;;;;;;;;5035800;28;20415;-58
2023/05/18 03:19:01;;;;;;;6.37;5.73;;;;;;;;;;5035849;28;20402;-58
2023/05/18 03:21:32;;;;;;;5.63;5.20;;;;;;;;;;5035749;28;20922;-58
2023/05/18 03:24:02;;;;;;;5.50;5.10;;;;;;;;;;5035453;28;20969;-58
2023/05/18 03:26:31;;;;;;;5.37;4.93;;;;;;;;;;5035596;28;20463;-58
2023/05/18 03:28:58;;;;;;;5.73;5.33;;;;;;;;;;5035730;28;20483;-58
2023/05/18 03:31:24;;;;;;;8.13;5.67;;;;;;;;;;5035413;28;20894;-58
2023/05/18 03:33:50;;;;;;;5.80;5.30;;;;;;;;;;5035446;28;20444;-57
2023/05/18 03:36:16;;;;;;;6.33;5.83;;;;;;;;;;5034231;28;20420;-58
2023/05/18 03:38:45;;;;;;;6.00;5.40;;;;;;;;;;5035225;28;20446;-58
2023/05/18 03:41:11;;;;;;;9.03;5.97;;;;;;;;;;5035377;28;20415;-58
2023/05/18 03:43:37;;;;;;;8.83;7.57;;;;;;;;;;5035098;28;20466;-58
2023/05/18 03:46:03;;;;;;;7.93;6.30;;;;;;;;;;5035301;28;20944;-58
2023/05/18 03:48:32;;;;;;;10.47;5.73;;;;;;;;;;5035278;28;20407;-58
2023/05/18 03:51:00;;;;;;;6.63;5.43;;;;;;;;;;5035025;28;20745;-58
2023/05/18 03:53:28;;;;;;;5.53;4.53;;;;;;;;;;5035151;28;20403;-58
2023/05/18 03:55:54;;;;;;;6.03;5.63;;;;;;;;;;5034909;28;20465;-58
2023/05/18 03:58:20;;;;;;;6.10;4.83;;;;;;;;;;5034838;28;20548;-57
2023/05/18 04:00:46;;;;;;;5.70;5.20;;;;;;;;;;5034911;28;20439;-58
2023/05/18 04:03:13;;;;;;;5.17;4.80;;;;;;;;;;5034790;28;20867;-58
2023/05/18 04:05:42;;;;;;;5.60;5.20;;;;;;;;;;5034858;28;20403;-58
2023/05/18 04:08:09;;;;;;;5.90;5.30;;;;;;;;;;5034938;28;20419;-58
2023/05/18 04:10:35;;;;;;;7.83;6.00;;;;;;;;;;5034871;28;20502;-58
2023/05/18 04:13:04;;;;;;;5.40;4.90;;;;;;;;;;5034807;28;20918;-58
2023/05/18 04:15:32;;;;;;;5.27;4.97;;;;;;;;;;5034704;28;20418;-58
2023/05/18 04:17:58;;;;;;;6.27;5.70;;;;;;;;;;5034557;28;20436;-58
2023/05/18 04:20:27;;;;;;;6.70;5.73;;;;;;;;;;5034708;28;20447;-58
2023/05/18 04:22:54;;;;;;;6.90;6.30;;;;;;;;;;5034404;28;20515;-58
2023/05/18 04:25:20;;;;;;;9.10;6.10;;;;;;;;;;5034557;28;20447;-58
2023/05/18 04:27:46;;;;;;;6.30;5.80;;;;;;;;;;5034524;28;20430;-58
2023/05/18 04:30:13;;;;;;;6.20;5.73;;;;;;;;;;5034654;28;20408;-58
2023/05/18 04:32:41;;;;;;;6.07;5.40;;;;;;;;;;5034534;28;20440;-58
2023/05/18 04:35:07;;;;;;;6.27;5.70;;;;;;;;;;5015377;28;20504;-56
2023/05/18 04:37:39;;;;;;;5.50;5.00;;;;;;;;;;5014428;28;20856;-57
2023/05/18 04:40:07;;;;;;;6.83;5.57;;;;;;;;;;5014189;28;20511;-58
2023/05/18 04:42:36;;;;;;;6.73;6.03;;;;;;;;;;5014371;28;20416;-58
2023/05/18 04:45:04;;;;;;;6.20;5.80;;;;;;;;;;5014298;28;20429;-57
2023/05/18 04:47:31;;;;;;;9.20;6.30;;;;;;;;;;5014698;28;20854;-58
2023/05/18 04:49:57;;;;;;;8.00;7.30;;;;;;;;;;5014192;28;20420;-57
2023/05/18 04:52:25;;;;;;;11.40;7.70;;;;;;;;;;5014346;28;20482;-58
2023/05/18 04:54:51;;;;;;;8.33;6.50;;;;;;;;;;5014516;28;20516;-57
2023/05/18 04:57:16;;;;;;;9.27;7.10;;;;;;;;;;5014148;28;20519;-57
2023/05/18 04:59:46;;;;;;;15.53;7.60;;;;;;;;;;5014126;28;20782;-58
2023/05/18 05:02:12;;;;;;;12.67;6.97;;;;;;;;;;5014027;28;20440;-57
2023/05/18 05:04:38;;;;;;;9.27;7.07;;;;;;;;;;5013896;28;20475;-57
2023/05/18 05:07:09;;;;;;;12.00;6.60;;;;;;;;;;5013408;28;20409;-56
2023/05/18 05:09:35;;;;;;;9.03;7.10;;;;;;;;;;5014057;28;20435;-58
2023/05/18 05:12:01;;;;;;;7.00;6.50;;;;;;;;;;5013999;28;20947;-57
2023/05/18 05:14:27;;;;;;;10.10;7.00;;;;;;;;;;5013751;28;20417;-58
2023/05/18 05:16:53;;;;;;;11.40;6.50;;;;;;;;;;5013875;28;20420;-57
2023/05/18 05:19:19;;;;;;;6.63;6.13;;;;;;;;;;5013623;28;20490;-57
2023/05/18 05:21:45;;;;;;;7.00;6.40;;;;;;;;;;5013813;28;20420;-58
2023/05/18 05:24:11;;;;;;;11.10;6.37;;;;;;;;;;5013460;28;20470;-57
2023/05/18 05:26:37;;;;;;;7.77;6.93;;;;;;;;;;5013664;28;20467;-58
2023/05/18 05:29:03;;;;;;;7.30;6.60;;;;;;;;;;5013534;28;20383;-56
2023/05/18 05:31:29;;;;;;;14.53;7.40;;;;;;;;;;5013515;28;20496;-58
2023/05/18 05:33:55;;;;;;;9.03;6.67;;;;;;;;;;5013555;28;20898;-56
2023/05/18 05:36:21;;;;;;;7.20;6.50;;;;;;;;;;5012082;28;20448;-58
2023/05/18 05:38:47;;;;;;;9.77;6.70;;;;;;;;;;5013341;28;20460;-57
2023/05/18 05:41:15;;;;;;;7.80;6.53;;;;;;;;;;5013271;28;20444;-57
2023/05/18 05:43:41;;;;;;;7.97;6.97;;;;;;;;;;5013223;28;20486;-57
2023/05/18 05:46:10;;;;;;;7.67;6.87;;;;;;;;;;5013183;28;20773;-58
2023/05/18 05:48:36;;;;;;;8.47;6.37;;;;;;;;;;5013240;28;20423;-57
2023/05/18 05:51:04;;;;;;;8.87;7.30;;;;;;;;;;5013001;28;20773;-58
2023/05/18 05:53:30;;;;;;;7.93;7.00;;;;;;;;;;5013033;28;20836;-58
2023/05/18 05:55:56;;;;;;;7.30;6.60;;;;;;;;;;5012912;28;20421;-58
2023/05/18 05:58:22;;;;;;;10.40;7.00;;;;;;;;;;5012973;28;20535;-65
2023/05/18 06:00:51;;;;;;;9.77;6.80;;;;;;;;;;5012890;28;20417;-58
2023/05/18 06:03:17;;;;;;;9.13;6.10;;;;;;;;;;5011547;28;20464;-58
2023/05/18 06:05:43;;;;;;;8.47;6.07;;;;;;;;;;5012893;28;20440;-58
2023/05/18 06:08:09;;;;;;;7.03;6.37;;;;;;;;;;5012790;28;20452;-58
2023/05/18 06:10:35;;;;;;;9.87;5.73;;;;;;;;;;5012989;28;20437;-58
2023/05/18 06:13:01;;;;;;;6.83;6.23;;;;;;;;;;5012677;28;20516;-58
2023/05/18 06:15:27;;;;;;;9.17;6.50;;;;;;;;;;5012704;28;20432;-58
2023/05/18 06:17:53;;;;;;;11.17;6.30;;;;;;;;;;5011843;28;21004;-58
2023/05/18 06:20:21;;;;;;;6.13;5.17;;;;;;;;;;5012509;28;20419;-58
2023/05/18 06:22:47;;;;;;;11.97;7.87;;;;;;;;;;5012660;28;20416;-58
2023/05/18 06:25:14;;;;;;;9.63;8.60;;;;;;;;;;5012818;28;20433;-58
2023/05/18 06:27:41;;;;;;;7.60;5.97;;;;;;;;;;5012602;28;20500;-58
2023/05/18 06:30:09;;;;;;;6.33;5.80;;;;;;;;;;5012662;28;20406;-58
2023/05/18 06:32:36;;;;;;;11.77;6.27;;;;;;;;;;5012453;28;20415;-58
2023/05/18 06:35:03;;;;;;;10.40;5.60;;;;;;;;;;5012655;28;20487;-58
2023/05/18 06:37:29;;;;;;;10.13;6.27;;;;;;;;;;5012420;28;20520;-58
2023/05/18 06:39:55;;;;;;;6.10;5.70;;;;;;;;;;5012398;28;20517;-58
2023/05/18 06:42:23;;;;;;;8.73;5.97;;;;;;;;;;5012476;28;21048;-58
2023/05/18 06:44:52;;;;;;;10.13;6.40;;;;;;;;;;5012359;28;20507;-56
2023/05/18 06:47:18;;;;;;;7.60;5.70;;;;;;;;;;5012196;28;20409;-57
2023/05/18 06:49:44;;;;;;;5.93;5.47;;;;;;;;;;5011188;28;20418;-58
2023/05/18 06:52:10;;;;;;;10.83;5.77;;;;;;;;;;5012473;28;20412;-58
2023/05/18 06:54:37;;;;;;;11.07;6.03;;;;;;;;;;5012347;28;20502;-58
2023/05/18 06:57:03;;;;;;;7.27;5.10;;;;;;;;;;5012746;28;20409;-59
2023/05/18 06:59:33;;;;;;;10.30;5.47;;;;;;;;;;5012462;28;20442;-57
2023/05/18 07:01:59;;;;;;;6.40;5.80;;;;;;;;;;5012852;28;20412;-57
2023/05/18 07:04:25;;;;;;;8.00;4.97;;;;;;;;;;5012728;28;20851;-57
2023/05/18 07:06:54;;;;;;;5.97;5.17;;;;;;;;;;5012922;28;20462;-57
2023/05/18 07:09:21;;;;;;;7.63;4.43;;;;;;;;;;5012700;28;20978;-57
2023/05/18 07:11:47;;;;;;;8.33;5.67;;;;;;;;;;5012821;28;20765;-57
2023/05/18 07:14:15;;;;;;;7.43;5.37;;;;;;;;;;5012424;28;20552;-57
2023/05/18 07:16:43;;;;;;;12.77;5.50;;;;;;;;;;5012404;28;20423;-57
2023/05/18 07:19:09;;;;;;;7.13;4.57;;;;;;;;;;5012406;28;20474;-57
2023/05/18 07:21:34;;;;;;;10.67;4.93;;;;;;;;;;5012452;28;20417;-57
2023/05/18 07:24:00;;;;;;;5.90;5.30;;;;;;;;;;5012370;28;20464;-57
2023/05/18 07:26:26;;;;;;;8.03;5.43;;;;;;;;;;5012447;28;20417;-57
2023/05/18 07:28:52;;;;;;;8.33;5.13;;;;;;;;;;5013450;28;20512;-57
2023/05/18 07:31:21;;;;;;;6.43;5.43;;;;;;;;;;5016155;28;20919;-57
2023/05/18 07:33:47;;;;;;;9.80;7.80;;;;;;;;;;5015719;28;20476;-58
2023/05/18 07:36:14;;;;;;;10.43;6.03;;;;;;;;;;5016151;28;20487;-58
2023/05/18 07:38:40;;;;;;;5.53;5.00;;;;;;;;;;5014567;28;20847;-57
2023/05/18 07:41:08;;;;;;;16.27;7.00;;;;;;;;;;5014614;28;20837;-56
2023/05/18 07:43:34;;;;;;;5.03;4.47;;;;;;;;;;5014771;28;20594;-57
2023/05/18 07:46:00;;;;;;;7.13;4.80;;;;;;;;;;5016017;28;20408;-58
2023/05/18 07:48:29;;;;;;;4.90;4.37;;;;;;;;;;5015787;28;20413;-58
2023/05/18 07:50:55;;;;;;;4.97;4.47;;;;;;;;;;5015745;28;20409;-57
2023/05/18 07:53:21;;;;;;;5.50;5.10;;;;;;;;;;5015726;28;20487;-65
2023/05/18 07:55:48;;;;;;;9.87;4.40;;;;;;;;;;5015382;28;20417;-59
2023/05/18 07:58:17;;;;;;;14.23;4.70;;;;;;;;;;5014357;28;20429;-57
2023/05/18 08:00:43;;;;;;;11.63;5.23;;;;;;;;;;5015220;28;20563;-62
2023/05/18 08:03:11;;;;;;;8.63;4.20;;;;;;;;;;5015277;28;20460;-62
2023/05/18 08:05:37;;;;;;;15.67;5.20;;;;;;;;;;5013936;28;20484;-67
2023/05/18 08:08:03;;;;;;;10.27;4.87;;;;;;;;;;5015284;28;20479;-58
2023/05/18 08:10:29;;;;;;;5.90;4.50;;;;;;;;;;5015321;28;20923;-58
2023/05/18 08:12:55;;;;;;;8.23;4.67;;;;;;;;;;5015287;28;20499;-59
2023/05/18 08:15:21;;;;;;;8.37;4.67;;;;;;;;;;5015109;28;20422;-59
2023/05/18 08:17:47;;;;;;;9.77;4.80;;;;;;;;;;5013753;28;20507;-58
2023/05/18 08:20:13;;;;;;;5.77;5.27;;;;;;;;;;5015095;28;20608;-59
2023/05/18 08:22:39;;;;;;;9.53;4.47;;;;;;;;;;5014886;28;20424;-58
2023/05/18 08:25:05;;;;;;;12.53;5.70;;;;;;;;;;5015039;28;20519;-58
2023/05/18 08:27:31;;;;;;;9.00;4.77;;;;;;;;;;5014973;28;20440;-58
2023/05/18 08:29:57;;;;;;;7.53;4.83;;;;;;;;;;5014764;28;20873;-57
2023/05/18 08:32:23;;;;;;;7.60;4.10;;;;;;;;;;5014885;28;20409;-59
2023/05/18 08:34:50;;;;;;;7.47;4.63;;;;;;;;;;5014766;28;20776;-58
2023/05/18 08:37:20;;;;;;;5.67;4.20;;;;;;;;;;5014760;28;20444;-58
2023/05/18 08:39:46;;;;;;;8.40;4.27;;;;;;;;;;5012617;28;20537;-58
2023/05/18 08:42:18;;;;;;;7.60;4.23;;;;;;;;;;5012993;28;20495;-59
2023/05/18 08:44:46;;;;;;;9.00;4.33;;;;;;;;;;5014653;28;20481;-58
2023/05/18 08:47:15;;;;;;;5.13;4.67;;;;;;;;;;5014693;28;20882;-59
2023/05/18 08:49:41;;;;;;;10.87;4.93;;;;;;;;;;5014447;28;20480;-59
2023/05/18 08:52:08;;;;;;;10.13;4.67;;;;;;;;;;5014280;28;20461;-58
2023/05/18 08:54:36;;;;;;;5.50;4.80;;;;;;;;;;5014295;28;20509;-58
2023/05/18 08:57:07;;;;;;;10.60;4.70;;;;;;;;;;5014486;28;20397;-59
2023/05/18 08:59:35;;;;;;;10.07;4.77;;;;;;;;;;5014110;28;20418;-58
2023/05/18 09:02:01;;;;;;;8.77;5.10;;;;;;;;;;5014112;28;20428;-59
2023/05/18 09:04:30;;;;;;;7.40;6.70;;;;;;;;;;5014116;28;20821;-59
2023/05/18 09:06:58;;;;;;;7.97;5.43;;;;;;;;;;5014204;28;20411;-59
2023/05/18 09:09:25;;;;;;;6.97;6.17;;;;;;;;;;5014061;28;20458;-59
2023/05/18 09:11:55;;;;;;;8.13;4.87;;;;;;;;;;5014101;28;20454;-58
2023/05/18 09:14:24;;;;;;;8.00;4.70;;;;;;;;;;5014235;28;20406;-59
2023/05/18 09:16:54;;;;;;;5.33;4.30;;;;;;;;;;5013931;28;20407;-59
2023/05/18 09:19:20;;;;;;;6.17;4.20;;;;;;;;;;5013650;28;20412;-59
2023/05/18 09:21:46;;;;;;;5.53;4.20;;;;;;;;;;5013559;28;20446;-58
2023/05/18 09:24:12;;;;;;;6.87;4.33;;;;;;;;;;5013646;28;20497;-59
2023/05/18 09:26:38;;;;;;;6.00;4.40;;;;;;;;;;5013786;28;20439;-59
2023/05/18 09:29:17;;;;;;;6.93;4.03;;;;;;;;;;5013673;28;20414;-59
2023/05/18 09:31:45;;;;;;;7.27;4.77;;;;;;;;;;5013812;28;20408;-57
2023/05/18 09:34:11;;;;;;;8.30;4.00;;;;;;;;;;5013368;28;20416;-59
2023/05/18 09:36:37;;;;;;;5.93;3.43;;;;;;;;;;5012322;28;20450;-59
2023/05/18 09:39:09;;;;;;;5.00;3.80;;;;;;;;;;5013557;28;20515;-58
2023/05/18 09:41:37;;;;;;;4.10;3.50;;;;;;;;;;5014009;28;20440;-59
2023/05/18 09:44:07;;;;;;;7.23;6.40;;;;;;;;;;5014104;28;20472;-58
2023/05/18 09:46:34;;;;;;;6.83;3.40;;;;;;;;;;5013798;28;20480;-59
2023/05/18 09:49:00;;;;;;;4.17;3.30;;;;;;;;;;5014621;28;20496;-58
2023/05/18 09:51:26;;;;;;;4.40;3.67;;;;;;;;;;5014033;28;20840;-58
2023/05/18 09:53:58;;;;;;;4.20;3.90;;;;;;;;;;5013269;28;20483;-58
2023/05/18 09:56:25;;;;;;;6.30;3.90;;;;;;;;;;5013257;28;20441;-60
2023/05/18 09:58:52;;;;;;;5.13;3.33;;;;;;;;;;5013434;28;20416;-58
2023/05/18 10:01:21;;;;;;;4.27;3.57;;;;;;;;;;5013260;28;20948;-59
2023/05/18 10:03:48;;;;;;;7.03;3.90;;;;;;;;;;5013069;28;20620;-57
2023/05/18 10:06:18;;;;;;;8.47;4.13;;;;;;;;;;5012562;28;20410;-59
2023/05/18 10:08:44;;;;;;;4.20;3.20;;;;;;;;;;5013310;28;20455;-58
2023/05/18 10:11:10;;;;;;;3.70;3.40;;;;;;;;;;5013377;28;20435;-58
2023/05/18 10:13:36;;;;;;;6.07;3.47;;;;;;;;;;5012961;28;20414;-60
2023/05/18 10:16:03;;;;;;;5.73;3.53;;;;;;;;;;5013046;28;20944;-59
2023/05/18 10:18:30;;;;;;;8.67;3.73;;;;;;;;;;5011604;28;20430;-60
2023/05/18 10:20:59;;;;;;;8.77;3.70;;;;;;;;;;5013335;28;20422;-59
2023/05/18 10:23:26;;;;;;;4.30;3.90;;;;;;;;;;5012922;28;20469;-59
2023/05/18 10:25:52;;;;;;;4.20;3.63;;;;;;;;;;5012827;28;20502;-59
2023/05/18 10:28:26;;;;;;;3.40;3.20;;;;;;;;;;5012943;28;20414;-59
2023/05/18 10:30:53;;;;;;;4.10;3.30;;;;;;;;;;5012960;28;20404;-58
2023/05/18 10:33:21;;;;;;;6.60;3.77;;;;;;;;;;5012763;28;20414;-58
2023/05/18 10:35:48;;;;;;;3.33;3.13;;;;;;;;;;5012857;28;20437;-61
2023/05/18 10:38:25;;;;;;;3.47;3.00;;;;;;;;;;5012753;28;20881;-60
2023/05/18 10:40:52;;;;;;;5.60;3.63;;;;;;;;;;5012807;28;20467;-60
2023/05/18 10:43:19;;;;;;;6.80;3.33;;;;;;;;;;5011167;28;20478;-60
2023/05/18 10:45:46;;;;;;;7.83;3.87;;;;;;;;;;5012800;28;20796;-60
2023/05/18 10:48:14;;;;;;;6.73;4.27;;;;;;;;;;5012963;28;20416;-62
2023/05/18 10:50:40;;;;;;;8.03;3.83;;;;;;;;;;5013005;28;20416;-60
2023/05/18 10:53:08;;;;;;;8.57;4.20;;;;;;;;;;5012451;28;20419;-60
2023/05/18 10:55:34;;;;;;;8.87;4.37;;;;;;;;;;5012589;28;20458;-60
2023/05/18 10:58:06;;;;;;;8.37;4.70;;;;;;;;;;5012469;28;20419;-60
2023/05/18 11:00:35;;;;;;;7.90;4.67;;;;;;;;;;5011405;28;20422;-59
2023/05/18 11:03:01;;;;;;;5.50;4.80;;;;;;;;;;5012430;28;20966;-60
2023/05/18 11:05:32;;;;;;;5.10;3.53;;;;;;;;;;5016134;28;20426;-60
2023/05/18 11:08:04;;;;;;;10.67;4.47;;;;;;;;;;5015125;28;20952;-60
2023/05/18 11:10:40;;;;;;;4.33;3.97;;;;;;;;;;5015824;28;20431;-60
2023/05/18 11:13:06;;;;;;;13.13;4.60;;;;;;;;;;5016133;28;20417;-60
2023/05/18 11:15:50;;;;;;;6.80;3.83;;;;;;;;;;5016293;28;20497;-60
2023/05/18 11:18:16;;;;;;;6.77;3.80;;;;;;;;;;5016125;28;20454;-61
2023/05/18 11:20:45;;;;;;;6.67;5.47;;;;;;;;;;5016590;28;20461;-60
2023/05/18 11:23:13;;;;;;;10.60;3.80;;;;;;;;;;5016202;28;20494;-60
2023/05/18 11:25:42;;;;;;;7.60;3.70;;;;;;;;;;5016099;28;20497;-60
2023/05/18 11:28:12;;;;;;;7.13;4.07;;;;;;;;;;5016186;28;20417;-60
2023/05/18 11:30:41;;;;;;;5.37;3.23;;;;;;;;;;5015945;28;20432;-60
2023/05/18 11:33:10;;;;;;;4.50;4.00;;;;;;;;;;5016084;28;20416;-60
2023/05/18 11:35:54;;;;;;;4.37;3.97;;;;;;;;;;5015911;28;20428;-61
2023/05/18 11:38:20;;;;;;;6.20;4.23;;;;;;;;;;5015836;28;20419;-60
2023/05/18 11:40:50;;;;;;;7.40;3.70;;;;;;;;;;5015223;28;20440;-60
2023/05/18 11:43:22;;;;;;;8.23;3.70;;;;;;;;;;5015678;28;20569;-61
2023/05/18 11:45:58;;;;;;;3.90;3.43;;;;;;;;;;5015562;28;20409;-61
2023/05/18 11:48:25;;;;;;;6.70;3.73;;;;;;;;;;5015773;28;20407;-61
2023/05/18 11:50:56;;;;;;;6.93;4.03;;;;;;;;;;5014036;28;20422;-61
2023/05/18 11:53:26;;;;;;;12.93;6.47;;;;;;;;;;5015643;28;20454;-61
2023/05/18 11:55:55;;;;;;;25.83;21.57;;;;;;;;;;5014196;28;20431;-60
2023/05/18 11:58:25;;;;;;;8.10;3.83;;;;;;;;;;5015500;28;20452;-60
2023/05/18 12:00:51;;;;;;;9.20;3.70;;;;;;;;;;5015856;28;20507;-60
2023/05/18 12:03:21;;;;;;;3.57;3.30;;;;;;;;;;5015395;28;20463;-60
2023/05/18 12:05:48;;;;;;;6.30;4.00;;;;;;;;;;5015201;28;20864;-60
2023/05/18 12:08:25;;;;;;;8.80;3.20;;;;;;;;;;5013976;28;20435;-60
2023/05/18 12:10:51;;;;;;;3.77;3.47;;;;;;;;;;5013982;28;20518;-60
2023/05/18 12:13:19;;;;;;;8.73;2.90;;;;;;;;;;5014932;28;20444;-60
2023/05/18 12:15:48;;;;;;;5.60;3.53;;;;;;;;;;5012459;28;20517;-60
2023/05/18 12:18:14;;;;;;;4.77;3.50;;;;;;;;;;5015044;28;20448;-60
2023/05/18 12:20:40;;;;;;;4.30;3.70;;;;;;;;;;5014449;28;20507;-60
2023/05/18 12:23:06;;;;;;;5.93;3.50;;;;;;;;;;5015083;28;20978;-60
2023/05/18 12:25:32;;;;;;;4.10;3.57;;;;;;;;;;5015160;28;20428;-60
2023/05/18 12:27:58;;;;;;;5.07;3.40;;;;;;;;;;5014867;28;20444;-60
2023/05/18 12:30:25;;;;;;;3.77;3.40;;;;;;;;;;5015160;28;20781;-60
2023/05/18 12:32:56;;;;;;;8.00;3.83;;;;;;;;;;5014624;28;20485;-60
2023/05/18 12:35:24;;;;;;;7.30;3.43;;;;;;;;;;5015219;28;20403;-65
2023/05/18 12:37:54;;;;;;;6.07;3.30;;;;;;;;;;5014537;28;20868;-57
2023/05/18 12:40:20;;;;;;;32.50;10.30;;;;;;;;;;5014533;28;20451;-57
2023/05/18 12:42:57;;;;;;;14.70;13.20;;;;;;;;;;5014564;28;20444;-57
2023/05/18 12:45:25;;;;;;;9.10;6.60;;;;;;;;;;5021910;28;20426;-57
2023/05/18 12:47:53;;;;;;;4.53;4.23;;;;;;;;;;5034042;28;20533;-57
2023/05/18 12:50:19;;;;;;;8.20;4.10;;;;;;;;;;5034280;28;20414;-55
2023/05/18 12:52:45;;;;;;;7.80;3.60;;;;;;;;;;5033971;28;20795;-56
2023/05/18 12:55:20;;;;;;;4.17;3.60;;;;;;;;;;5034333;28;20427;-56
2023/05/18 12:57:46;;;;;;;55.23;31.97;;;;;;;;;;5034145;28;20396;-63
2023/05/18 13:00:12;;;;;;;3.60;3.40;;;;;;;;;;5034050;28;20945;-58
2023/05/18 13:02:38;;;;;;;5.63;3.80;;;;;;;;;;5034002;28;20428;-58
2023/05/18 13:05:04;;;;;;;3.80;3.37;;;;;;;;;;5033681;28;20498;-58
2023/05/18 13:07:31;;;;;;;3.77;3.57;;;;;;;;;;5032545;28;20419;-58
2023/05/18 13:10:03;;;;;;;3.37;3.10;;;;;;;;;;5034026;28;20541;-57
2023/05/18 13:12:37;;;;;;;4.37;3.47;;;;;;;;;;5033950;28;20893;-57
2023/05/18 13:15:10;;;;;;;4.73;3.37;;;;;;;;;;5033788;28;20431;-58
2023/05/18 13:17:36;;;;;;;5.40;3.30;;;;;;;;;;5034030;28;20421;-58
2023/05/18 13:20:04;;;;;;;3.70;3.40;;;;;;;;;;5033843;28;20901;-57
2023/05/18 13:22:30;;;;;;;4.10;3.67;;;;;;;;;;5033822;28;20425;-57
2023/05/18 13:24:56;;;;;;;4.80;3.87;;;;;;;;;;5032206;28;20477;-58
2023/05/18 13:27:24;;;;;;;5.47;3.47;;;;;;;;;;5032264;28;20782;-57
2023/05/18 13:29:51;;;;;;;4.03;3.53;;;;;;;;;;5033734;28;20419;-58
2023/05/18 13:32:17;;;;;;;4.73;3.60;;;;;;;;;;5033166;28;20468;-58
2023/05/18 13:34:43;;;;;;;3.27;2.97;;;;;;;;;;5033470;28;20450;-58
2023/05/18 13:37:09;;;;;;;4.07;3.67;;;;;;;;;;5033358;28;20426;-59
2023/05/18 13:39:35;;;;;;;3.77;3.47;;;;;;;;;;5033259;28;20952;-57
2023/05/18 13:42:01;;;;;;;8.33;3.60;;;;;;;;;;5033240;28;20426;-58
2023/05/18 13:44:27;;;;;;;4.30;3.90;;;;;;;;;;5033278;28;20484;-57
2023/05/18 13:46:53;;;;;;;3.47;3.27;;;;;;;;;;5033237;28;20411;-58
2023/05/18 13:49:20;;;;;;;4.67;4.23;;;;;;;;;;5033048;28;20410;-59
2023/05/18 13:51:46;;;;;;;10.53;3.60;;;;;;;;;;5033632;28;20448;-58
2023/05/18 13:54:15;;;;;;;5.97;3.70;;;;;;;;;;5033063;28;20449;-58
2023/05/18 13:56:41;;;;;;;4.30;3.90;;;;;;;;;;5033268;28;20791;-56
2023/05/18 13:59:07;;;;;;;6.17;4.10;;;;;;;;;;5033042;28;20461;-58
2023/05/18 14:01:33;;;;;;;7.63;3.70;;;;;;;;;;5033329;28;20507;-57
2023/05/18 14:03:59;;;;;;;6.50;4.53;;;;;;;;;;5032897;28;20972;-58
2023/05/18 14:06:28;;;;;;;44.43;27.27;;;;;;;;;;5032702;28;20478;-59
2023/05/18 14:08:54;;;;;;;34.83;21.27;;;;;;;;;;5032934;28;21159;-58
2023/05/18 14:11:20;;;;;;;4.00;3.70;;;;;;;;;;5032992;28;20392;-57
2023/05/18 14:13:49;;;;;;;6.97;3.50;;;;;;;;;;5031712;28;20964;-58
2023/05/18 14:16:17;;;;;;;6.40;3.87;;;;;;;;;;5032752;28;20456;-58
2023/05/18 14:18:43;;;;;;;8.87;3.63;;;;;;;;;;5032755;28;20451;-56
2023/05/18 14:21:09;;;;;;;5.20;4.70;;;;;;;;;;5032542;28;20434;-58
2023/05/18 14:23:35;;;;;;;7.83;4.33;;;;;;;;;;5032424;28;20466;-57
2023/05/18 14:26:01;;;;;;;3.93;3.60;;;;;;;;;;5032535;28;20414;-56
2023/05/18 14:28:29;;;;;;;6.07;4.43;;;;;;;;;;5032616;28;20413;-58
2023/05/18 14:30:55;;;;;;;6.43;4.20;;;;;;;;;;5032689;28;20459;-58
2023/05/18 14:33:21;;;;;;;4.10;3.77;;;;;;;;;;5032458;28;20417;-57
2023/05/18 14:35:47;;;;;;;7.37;5.60;;;;;;;;;;5032558;28;20438;-59
2023/05/18 14:38:13;;;;;;;16.30;10.50;;;;;;;;;;5046899;28;20521;-63
2023/05/18 14:40:39;;;;;;;11.40;7.93;;;;;;;;;;5032606;28;20816;-64
2023/05/18 14:43:05;;;;;;;8.10;4.70;;;;;;;;;;5047252;28;20426;-58
2023/05/18 14:45:31;;;;;;;5.97;3.97;;;;;;;;;;5032309;28;20461;-56